Time;durP1;ratioP1;P1;durP2;ratioP2;P2;SDS_P1;SDS_P2;PMS_P1;PMS_P2;Temp;Humidity;BMP_temperature;BMP_pressure;BME280_temperature;BME280_humidity;BME280_pressure;Samples;Min_cycle;Max_cycle;Signal;HPM_P1;HPM_P2
2023/03/01 00:01:49;;;;;;;17.83;13.87;;;6.60;45.30;;;;;;4993439;28;20277;-69
2023/03/01 00:04:15;;;;;;;17.73;13.10;;;6.60;45.20;;;;;;4993244;28;20846;-68
2023/03/01 00:06:42;;;;;;;16.40;11.47;;;6.60;45.30;;;;;;5005751;28;20194;-70
2023/03/01 00:09:08;;;;;;;19.87;12.57;;;6.60;45.20;;;;;;4995660;28;20236;-69
2023/03/01 00:11:34;;;;;;;17.63;12.80;;;6.60;45.20;;;;;;4999550;28;21368;-69
2023/03/01 00:14:04;;;;;;;20.73;13.13;;;6.60;45.20;;;;;;5011046;28;20190;-69
2023/03/01 00:16:33;;;;;;;18.10;12.70;;;6.50;45.00;;;;;;5011586;28;20432;-70
2023/03/01 00:18:59;;;;;;;16.90;13.00;;;6.50;45.10;;;;;;5007583;28;20480;-69
2023/03/01 00:21:25;;;;;;;19.73;13.77;;;6.50;45.20;;;;;;5001175;28;20572;-69
2023/03/01 00:23:51;;;;;;;19.37;14.60;;;6.50;45.30;;;;;;4996851;28;20598;-69
2023/03/01 00:26:18;;;;;;;14.93;11.20;;;6.50;45.40;;;;;;5006083;28;20449;-69
2023/03/01 00:28:45;;;;;;;17.43;12.47;;;6.50;45.30;;;;;;5001916;28;20251;-69
2023/03/01 00:31:13;;;;;;;15.63;12.33;;;6.50;45.40;;;;;;5008457;28;20475;-69
2023/03/01 00:33:39;;;;;;;17.17;12.73;;;6.40;45.40;;;;;;5009391;28;20480;-69
2023/03/01 00:36:06;;;;;;;17.47;12.20;;;6.40;45.50;;;;;;5007030;28;20452;-69
2023/03/01 00:38:36;;;;;;;14.67;12.30;;;6.40;45.70;;;;;;5004539;28;20468;-69
2023/03/01 00:41:10;;;;;;;17.43;12.80;;;6.40;45.60;;;;;;4998928;28;20855;-69
2023/03/01 00:43:37;;;;;;;19.40;12.87;;;6.50;45.50;;;;;;5002566;28;20952;-70
2023/03/01 00:46:13;;;;;;;17.17;13.67;;;6.50;45.50;;;;;;5004324;28;20441;-70
2023/03/01 00:48:39;;;;;;;17.50;12.73;;;6.40;45.40;;;;;;5008334;28;20499;-70
2023/03/01 00:51:21;;;;;;;19.90;13.23;;;6.40;45.30;;;;;;4997317;28;20429;-69
2023/03/01 00:53:49;;;;;;;17.17;11.83;;;6.40;45.30;;;;;;5001879;28;20436;-69
2023/03/01 00:56:15;;;;;;;17.83;12.57;;;6.40;45.60;;;;;;5001059;28;20448;-70
2023/03/01 00:58:41;;;;;;;16.33;11.70;;;6.40;45.70;;;;;;5008200;28;20441;-70
2023/03/01 01:01:19;;;;;;;17.57;13.07;;;6.30;45.60;;;;;;5002991;28;20221;-70
2023/03/01 01:03:47;;;;;;;19.07;12.93;;;6.30;45.60;;;;;;5006821;28;20475;-69
2023/03/01 01:06:22;;;;;;;19.30;12.47;;;6.30;45.60;;;;;;5007539;28;20445;-71
2023/03/01 01:08:48;;;;;;;18.03;12.63;;;6.10;45.60;;;;;;5010649;28;20441;-67
2023/03/01 01:11:15;;;;;;;16.30;12.77;;;6.10;45.80;;;;;;5009722;28;20539;-67
2023/03/01 01:13:41;;;;;;;17.77;12.57;;;6.10;45.90;;;;;;5006386;28;20805;-70
2023/03/01 01:16:07;;;;;;;16.23;13.00;;;6.10;45.90;;;;;;5003662;28;20441;-70
2023/03/01 01:18:33;;;;;;;17.57;12.40;;;6.10;45.90;;;;;;4999713;28;20217;-71
2023/03/01 01:21:04;;;;;;;17.87;12.30;;;6.10;45.90;;;;;;5006209;28;20937;-71
2023/03/01 01:23:30;;;;;;;16.40;11.97;;;6.10;45.90;;;;;;5005920;28;20190;-71
2023/03/01 01:25:56;;;;;;;17.50;11.97;;;6.00;46.00;;;;;;5006055;28;20543;-71
2023/03/01 01:28:21;;;;;;;15.43;12.10;;;6.00;46.10;;;;;;5003372;28;20194;-71
2023/03/01 01:30:47;;;;;;;17.47;11.90;;;6.10;46.20;;;;;;5003001;28;20703;-70
2023/03/01 01:33:12;;;;;;;19.03;11.90;;;6.00;46.10;;;;;;5006260;28;20563;-71
2023/03/01 01:35:38;;;;;;;22.27;13.57;;;6.00;46.20;;;;;;5004309;28;20194;-71
2023/03/01 01:38:03;;;;;;;19.87;13.50;;;6.00;46.10;;;;;;5000552;28;20194;-70
2023/03/01 01:40:29;;;;;;;19.23;13.70;;;6.00;46.20;;;;;;5001696;28;20221;-70
2023/03/01 01:42:55;;;;;;;25.73;13.33;;;5.90;46.20;;;;;;4999652;28;20197;-70
2023/03/01 01:45:33;;;;;;;19.70;13.00;;;5.90;46.30;;;;;;5001318;28;20221;-70
2023/03/01 01:48:12;;;;;;;26.60;12.93;;;5.90;46.30;;;;;;4993882;28;20287;-70
2023/03/01 01:50:40;;;;;;;25.73;14.57;;;5.90;46.40;;;;;;5006587;28;20856;-70
2023/03/01 01:53:10;;;;;;;20.50;14.23;;;5.70;46.50;;;;;;5003538;28;20543;-71
2023/03/01 01:55:40;;;;;;;17.17;13.17;;;5.60;47.00;;;;;;5010838;28;20429;-71
2023/03/01 01:58:09;;;;;;;17.43;13.37;;;5.20;47.40;;;;;;5008965;28;20452;-70
2023/03/01 02:00:36;;;;;;;21.03;12.97;;;5.00;48.60;;;;;;5009788;28;20488;-70
2023/03/01 02:03:06;;;;;;;17.80;13.20;;;5.10;48.70;;;;;;5003235;28;20556;-70
2023/03/01 02:05:53;;;;;;;19.17;12.47;;;5.20;48.70;;;;;;4991393;28;20445;-70
2023/03/01 02:08:21;;;;;;;17.03;12.77;;;5.30;48.60;;;;;;5000979;28;20441;-70
2023/03/01 02:10:49;;;;;;;17.63;12.57;;;5.20;49.10;;;;;;5005049;28;20450;-70
2023/03/01 02:13:14;;;;;;;17.33;12.53;;;5.30;49.30;;;;;;5008926;28;20979;-69
2023/03/01 02:15:41;;;;;;;17.80;12.47;;;5.40;48.90;;;;;;4998778;28;20563;-69
2023/03/01 02:18:08;;;;;;;19.13;12.47;;;5.60;48.70;;;;;;5008869;28;20633;-70
2023/03/01 02:21:04;;;;;;;19.73;12.67;;;5.60;48.50;;;;;;5004611;28;20496;-69
2023/03/01 02:23:30;;;;;;;19.57;12.37;;;5.70;48.40;;;;;;5004881;28;20464;-70
2023/03/01 02:26:12;;;;;;;16.93;12.97;;;5.80;48.30;;;;;;4999067;28;20449;-70
2023/03/01 02:28:40;;;;;;;17.47;12.70;;;5.80;48.10;;;;;;4996490;28;20213;-70
2023/03/01 02:33:54;;;;;;;15.70;11.90;;;6.00;48.30;;;;;;5007329;28;20466;-70
2023/03/01 02:36:26;;;;;;;18.60;13.00;;;6.00;48.10;;;;;;5005253;28;20559;-70
2023/03/01 02:38:55;;;;;;;16.70;12.00;;;6.10;48.00;;;;;;4991669;28;20543;-70
2023/03/01 02:41:23;;;;;;;18.43;12.27;;;6.10;48.00;;;;;;4984173;28;20569;-70
2023/03/01 02:43:49;;;;;;;17.27;12.90;;;6.20;48.00;;;;;;4995355;28;20575;-70
2023/03/01 02:46:19;;;;;;;20.80;13.30;;;6.20;47.90;;;;;;5005314;28;20567;-70
2023/03/01 02:48:50;;;;;;;18.67;12.30;;;6.20;47.90;;;;;;4999432;28;20234;-70
2023/03/01 02:51:25;;;;;;;16.63;12.07;;;6.20;47.80;;;;;;5004419;28;20488;-69
2023/03/01 02:54:08;;;;;;;16.17;11.77;;;6.30;47.90;;;;;;5001232;28;20456;-70
2023/03/01 02:56:34;;;;;;;15.63;11.90;;;6.30;47.60;;;;;;4997868;28;20460;-70
2023/03/01 02:59:00;;;;;;;20.00;12.57;;;6.40;47.90;;;;;;5004687;28;20439;-70
2023/03/01 03:01:36;;;;;;;14.10;10.97;;;6.40;47.80;;;;;;4991846;28;20485;-69
2023/03/01 03:04:07;;;;;;;17.10;12.27;;;6.40;47.80;;;;;;5000876;28;20440;-69
2023/03/01 03:06:33;;;;;;;20.10;13.63;;;6.40;47.80;;;;;;5003026;28;20453;-70
2023/03/01 03:08:59;;;;;;;17.43;12.43;;;6.50;47.80;;;;;;5003861;28;20547;-70
2023/03/01 03:11:26;;;;;;;14.83;13.03;;;6.50;47.80;;;;;;5004262;28;20502;-70
2023/03/01 03:13:51;;;;;;;17.60;12.67;;;6.50;47.80;;;;;;5009012;28;20512;-69
2023/03/01 03:16:17;;;;;;;17.57;13.27;;;6.50;47.80;;;;;;5009265;28;20511;-70
2023/03/01 03:18:43;;;;;;;19.07;12.00;;;6.60;47.80;;;;;;5009632;28;20620;-69
2023/03/01 03:21:11;;;;;;;15.83;12.10;;;6.60;47.80;;;;;;5009910;28;20571;-70
2023/03/01 03:23:37;;;;;;;18.97;12.23;;;6.60;47.70;;;;;;4992875;28;20236;-70
2023/03/01 03:26:04;;;;;;;16.03;11.57;;;6.60;47.90;;;;;;4987444;28;20464;-69
2023/03/01 03:28:34;;;;;;;18.93;11.30;;;6.60;48.00;;;;;;5013833;28;20427;-70
2023/03/01 03:31:03;;;;;;;15.13;11.63;;;6.60;47.90;;;;;;5011562;28;20445;-70
2023/03/01 03:33:30;;;;;;;15.93;12.00;;;6.70;48.10;;;;;;5004607;28;20445;-69
2023/03/01 03:35:56;;;;;;;16.50;12.50;;;6.70;48.10;;;;;;5010166;28;20963;-70
2023/03/01 03:38:22;;;;;;;18.90;12.30;;;6.70;48.00;;;;;;5011468;28;20932;-70
2023/03/01 03:40:52;;;;;;;18.33;12.50;;;6.70;47.90;;;;;;5013892;28;20571;-70
2023/03/01 03:43:21;;;;;;;18.17;12.40;;;6.70;47.80;;;;;;5011330;28;20811;-69
2023/03/01 03:45:48;;;;;;;19.60;12.93;;;6.70;47.70;;;;;;5011167;28;20459;-69
2023/03/01 03:48:14;;;;;;;19.13;13.03;;;6.80;47.60;;;;;;5006366;28;20972;-69
2023/03/01 03:50:41;;;;;;;20.00;14.57;;;6.80;47.70;;;;;;5013255;28;20623;-69
2023/03/01 03:53:09;;;;;;;20.43;13.63;;;6.70;47.90;;;;;;4998872;28;20418;-70
2023/03/01 03:55:38;;;;;;;19.23;14.27;;;6.70;47.90;;;;;;5012923;28;20425;-70
2023/03/01 03:58:08;;;;;;;14.00;11.37;;;6.80;48.00;;;;;;4993779;28;20429;-70
2023/03/01 04:00:36;;;;;;;15.13;11.97;;;6.80;47.80;;;;;;5006095;28;21047;-69
2023/03/01 04:03:02;;;;;;;19.17;12.77;;;6.80;47.70;;;;;;5006502;28;20418;-69
2023/03/01 04:05:28;;;;;;;18.83;13.60;;;6.80;47.70;;;;;;4997014;28;20537;-69
2023/03/01 04:08:01;;;;;;;17.87;12.27;;;6.80;47.70;;;;;;4993876;28;20519;-69
2023/03/01 04:10:31;;;;;;;17.93;13.47;;;6.90;47.70;;;;;;4998034;28;20425;-69
2023/03/01 04:12:57;;;;;;;17.70;13.20;;;6.70;47.70;;;;;;5004566;28;20441;-69
2023/03/01 04:15:24;;;;;;;18.60;13.47;;;6.40;47.90;;;;;;4993164;28;20910;-69
2023/03/01 04:17:51;;;;;;;16.60;13.17;;;6.10;48.70;;;;;;4993654;28;20440;-69
2023/03/01 04:20:25;;;;;;;18.07;13.13;;;6.30;49.60;;;;;;5002171;28;21217;-69
2023/03/01 04:23:20;;;;;;;20.73;13.40;;;6.00;48.90;;;;;;5005974;28;20920;-69
2023/03/01 04:25:53;;;;;;;20.00;14.23;;;6.10;49.30;;;;;;5004668;28;20446;-70
2023/03/01 04:28:27;;;;;;;19.40;13.60;;;6.00;49.20;;;;;;5009171;28;20432;-70
2023/03/01 04:30:54;;;;;;;19.03;12.90;;;6.20;49.10;;;;;;5003324;28;20458;-69
2023/03/01 04:33:20;;;;;;;21.57;13.83;;;6.40;48.70;;;;;;4991522;28;20960;-70
2023/03/01 04:35:45;;;;;;;20.93;13.73;;;6.40;48.30;;;;;;4991670;28;20434;-69
2023/03/01 04:38:11;;;;;;;19.90;14.33;;;6.50;48.30;;;;;;4995529;28;20465;-69
2023/03/01 04:40:37;;;;;;;19.27;12.10;;;6.60;47.90;;;;;;5003159;28;20280;-69
2023/03/01 04:43:04;;;;;;;20.57;13.10;;;6.80;47.70;;;;;;5000582;28;20425;-70
2023/03/01 04:45:31;;;;;;;19.93;13.20;;;6.80;47.50;;;;;;5004968;28;20201;-69
2023/03/01 04:47:58;;;;;;;16.73;13.00;;;6.90;47.40;;;;;;5008238;28;20481;-69
2023/03/01 04:50:25;;;;;;;22.67;13.50;;;6.80;47.40;;;;;;5007720;28;20448;-69
2023/03/01 04:52:51;;;;;;;18.97;13.90;;;6.80;47.50;;;;;;5004827;28;20445;-70
2023/03/01 04:55:17;;;;;;;20.07;14.20;;;6.90;47.50;;;;;;5002180;28;20452;-70
2023/03/01 04:57:43;;;;;;;18.00;13.30;;;6.80;47.30;;;;;;5010423;28;20448;-69
2023/03/01 05:00:20;;;;;;;20.03;11.63;;;6.80;47.30;;;;;;5010578;28;20432;-69
2023/03/01 05:02:54;;;;;;;17.73;12.73;;;6.90;47.30;;;;;;5007956;28;20185;-70
2023/03/01 05:05:26;;;;;;;22.50;13.50;;;6.90;47.20;;;;;;4994586;28;20435;-69
2023/03/01 05:07:53;;;;;;;21.10;14.23;;;6.80;47.30;;;;;;5011794;28;20433;-69
2023/03/01 05:10:19;;;;;;;18.90;13.60;;;6.90;47.30;;;;;;5009440;28;20443;-70
2023/03/01 05:12:44;;;;;;;16.40;13.50;;;6.90;47.00;;;;;;4990121;28;20434;-69
2023/03/01 05:15:10;;;;;;;17.00;12.70;;;7.00;47.10;;;;;;5005865;28;21183;-70
2023/03/01 05:17:36;;;;;;;17.43;13.80;;;7.00;47.50;;;;;;5001991;28;20201;-70
2023/03/01 05:20:05;;;;;;;20.70;14.10;;;7.00;47.70;;;;;;5009787;28;20615;-69
2023/03/01 05:22:31;;;;;;;20.30;13.37;;;6.90;47.50;;;;;;5004216;28;20194;-69
2023/03/01 05:24:57;;;;;;;17.67;13.37;;;6.90;47.60;;;;;;5003341;28;20453;-69
2023/03/01 05:27:22;;;;;;;19.90;13.80;;;6.90;47.60;;;;;;5009220;28;20677;-70
2023/03/01 05:29:48;;;;;;;21.30;13.87;;;6.90;47.60;;;;;;5003781;28;20190;-70
2023/03/01 05:32:15;;;;;;;18.57;13.60;;;6.90;47.50;;;;;;5008060;28;20182;-69
2023/03/01 05:34:41;;;;;;;18.07;13.23;;;6.80;47.60;;;;;;5005446;28;20611;-69
2023/03/01 05:37:07;;;;;;;19.30;13.17;;;6.80;47.80;;;;;;5003504;28;20432;-69
2023/03/01 05:39:33;;;;;;;18.97;12.93;;;6.80;47.70;;;;;;5011416;28;20193;-69
2023/03/01 05:42:01;;;;;;;20.33;14.60;;;6.80;47.80;;;;;;5005409;28;20489;-69
2023/03/01 05:44:28;;;;;;;20.30;15.93;;;6.80;47.60;;;;;;5000424;28;20441;-70
2023/03/01 05:46:54;;;;;;;20.10;13.83;;;6.80;47.50;;;;;;5003778;28;20441;-69
2023/03/01 05:49:20;;;;;;;19.73;14.23;;;6.90;47.70;;;;;;4997992;28;20472;-70
2023/03/01 05:51:50;;;;;;;19.80;12.80;;;7.00;47.50;;;;;;5004092;28;20437;-70
2023/03/01 05:54:16;;;;;;;16.83;12.90;;;6.90;47.30;;;;;;5009391;28;20445;-70
2023/03/01 05:56:43;;;;;;;19.93;14.20;;;7.00;47.20;;;;;;4991007;28;20465;-70
2023/03/01 05:59:09;;;;;;;19.20;14.43;;;6.90;47.20;;;;;;4990453;28;20836;-70
2023/03/01 06:01:36;;;;;;;19.07;14.70;;;7.00;47.20;;;;;;4991430;28;20535;-70
2023/03/01 06:04:02;;;;;;;19.20;14.33;;;7.00;47.30;;;;;;4998898;28;20193;-70
2023/03/01 06:06:28;;;;;;;23.30;15.60;;;7.00;47.30;;;;;;5003076;28;20524;-70
2023/03/01 06:08:55;;;;;;;20.47;15.20;;;7.10;47.40;;;;;;4996811;28;20505;-70
2023/03/01 06:11:21;;;;;;;26.40;18.40;;;7.10;47.20;;;;;;4990597;28;20455;-70
2023/03/01 06:13:47;;;;;;;23.20;18.20;;;7.20;47.20;;;;;;5010654;28;20467;-69
2023/03/01 06:16:13;;;;;;;24.73;17.70;;;7.20;47.20;;;;;;5011042;28;20449;-69
2023/03/01 06:18:39;;;;;;;26.63;18.83;;;7.20;47.10;;;;;;5004110;28;20436;-67
2023/03/01 06:21:06;;;;;;;28.07;15.60;;;7.30;47.30;;;;;;4990425;28;20488;-67
2023/03/01 06:23:32;;;;;;;21.33;12.37;;;7.40;50.50;;;;;;5000780;28;20197;-67
2023/03/01 06:25:57;;;;;;;18.33;12.90;;;7.80;51.90;;;;;;4999474;28;20852;-67
2023/03/01 06:28:23;;;;;;;16.23;13.00;;;8.00;50.70;;;;;;5005341;28;20433;-67
2023/03/01 06:30:51;;;;;;;24.53;15.60;;;8.30;49.50;;;;;;5008812;28;20452;-68
2023/03/01 06:33:19;;;;;;;19.53;14.77;;;8.40;48.00;;;;;;4998627;28;20217;-67
2023/03/01 06:35:48;;;;;;;20.10;14.93;;;8.60;48.20;;;;;;4990958;28;20496;-67
2023/03/01 06:38:18;;;;;;;27.03;15.50;;;8.70;46.50;;;;;;5002035;28;21129;-67
2023/03/01 06:40:50;;;;;;;18.57;14.40;;;8.70;45.60;;;;;;5009558;28;20487;-67
2023/03/01 06:43:16;;;;;;;16.80;14.10;;;8.60;44.90;;;;;;5008211;28;20541;-67
2023/03/01 06:45:42;;;;;;;16.43;14.17;;;8.70;46.10;;;;;;4996957;28;20481;-67
2023/03/01 06:48:08;;;;;;;17.77;13.90;;;8.80;45.90;;;;;;5002766;28;20234;-67
2023/03/01 06:50:34;;;;;;;19.53;14.47;;;8.80;44.60;;;;;;5007592;28;20456;-67
2023/03/01 06:53:01;;;;;;;18.60;14.20;;;8.70;44.10;;;;;;4999390;28;20217;-67
2023/03/01 06:55:26;;;;;;;19.97;15.10;;;8.80;44.60;;;;;;5002480;28;20436;-67
2023/03/01 06:57:59;;;;;;;17.73;14.23;;;8.90;44.50;;;;;;5002823;28;20440;-68
2023/03/01 07:00:26;;;;;;;18.57;13.60;;;8.90;44.30;;;;;;5010086;28;20221;-67
2023/03/01 07:02:52;;;;;;;19.53;14.70;;;8.90;44.40;;;;;;5009750;28;20796;-67
2023/03/01 07:05:17;;;;;;;17.60;13.93;;;9.20;44.90;;;;;;5001905;28;20475;-67
2023/03/01 07:07:43;;;;;;;21.23;14.33;;;9.30;44.00;;;;;;5008761;28;20209;-67
2023/03/01 07:10:10;;;;;;;22.40;14.50;;;9.50;43.60;;;;;;5011894;28;20201;-67
2023/03/01 07:12:35;;;;;;;19.43;15.00;;;9.60;42.90;;;;;;5012883;28;20281;-67
2023/03/01 07:15:01;;;;;;;20.07;14.97;;;9.60;42.50;;;;;;5005444;28;20507;-67
2023/03/01 07:17:26;;;;;;;22.40;15.67;;;9.50;42.30;;;;;;5011456;28;20256;-67
2023/03/01 07:19:52;;;;;;;20.57;14.33;;;9.50;42.30;;;;;;5007827;28;20190;-67
2023/03/01 07:22:17;;;;;;;19.57;14.20;;;9.60;42.30;;;;;;5009222;28;20643;-67
2023/03/01 07:24:43;;;;;;;18.97;15.73;;;9.60;42.40;;;;;;5007622;28;20194;-67
2023/03/01 07:27:09;;;;;;;20.80;14.63;;;9.50;41.90;;;;;;4998319;28;20186;-67
2023/03/01 07:29:36;;;;;;;19.33;14.43;;;9.50;41.90;;;;;;5004414;28;20467;-67
2023/03/01 07:32:03;;;;;;;18.70;14.63;;;9.60;42.00;;;;;;5008319;28;20445;-67
2023/03/01 07:34:28;;;;;;;20.00;15.60;;;9.60;42.00;;;;;;5007288;28;20444;-67
2023/03/01 07:36:54;;;;;;;18.60;14.23;;;9.60;41.80;;;;;;5009532;28;20444;-66
2023/03/01 07:39:19;;;;;;;18.03;14.20;;;9.70;42.10;;;;;;5004877;28;20197;-70
2023/03/01 07:41:45;;;;;;;19.67;14.50;;;9.90;42.10;;;;;;4995464;28;20253;-70
2023/03/01 07:44:11;;;;;;;19.30;14.73;;;10.20;40.90;;;;;;5002504;28;20198;-69
2023/03/01 07:46:36;;;;;;;22.00;15.90;;;10.50;40.70;;;;;;5000840;28;20234;-71
2023/03/01 07:49:02;;;;;;;22.10;15.73;;;10.70;40.30;;;;;;4999430;28;20234;-70
2023/03/01 07:51:27;;;;;;;19.17;15.27;;;11.00;39.80;;;;;;4999725;28;20196;-70
2023/03/01 07:53:53;;;;;;;20.60;14.90;;;11.10;39.00;;;;;;4996193;28;20626;-70
2023/03/01 07:56:20;;;;;;;22.40;15.10;;;11.20;38.80;;;;;;5002773;28;20226;-71
2023/03/01 07:58:45;;;;;;;21.27;16.53;;;11.30;39.10;;;;;;5001124;28;20255;-66
2023/03/01 08:01:16;;;;;;;23.37;17.10;;;11.30;38.50;;;;;;5004166;28;20480;-69
2023/03/01 08:03:43;;;;;;;20.10;15.53;;;11.30;38.40;;;;;;5003972;28;20198;-69
2023/03/01 08:06:10;;;;;;;18.23;15.33;;;11.30;38.20;;;;;;5004802;28;20465;-66
2023/03/01 08:08:36;;;;;;;19.00;15.37;;;11.30;38.40;;;;;;5003151;28;20809;-66
2023/03/01 08:11:04;;;;;;;20.77;16.23;;;11.10;38.20;;;;;;5004210;28;20445;-66
2023/03/01 08:13:30;;;;;;;20.43;16.03;;;11.10;38.50;;;;;;5009556;28;20452;-66
2023/03/01 08:16:04;;;;;;;19.20;15.67;;;11.10;38.50;;;;;;4996037;28;20436;-66
2023/03/01 08:18:30;;;;;;;20.50;15.50;;;10.90;38.00;;;;;;5004176;28;20525;-68
2023/03/01 08:20:55;;;;;;;19.73;15.73;;;10.70;38.70;;;;;;5001631;28;21272;-66
2023/03/01 08:23:21;;;;;;;20.93;14.70;;;10.70;39.10;;;;;;4998256;28;20194;-66
2023/03/01 08:25:47;;;;;;;22.07;15.40;;;10.70;38.80;;;;;;5006414;28;20217;-63
2023/03/01 08:28:12;;;;;;;26.70;17.27;;;10.70;39.50;;;;;;5007265;28;20281;-67
2023/03/01 08:30:38;;;;;;;23.30;15.73;;;10.90;39.50;;;;;;4985549;28;20202;-68
2023/03/01 08:33:03;;;;;;;20.87;15.60;;;11.00;39.50;;;;;;4998228;28;20190;-64
2023/03/01 08:35:29;;;;;;;21.07;15.97;;;11.00;38.90;;;;;;4998484;28;20649;-67
2023/03/01 08:37:55;;;;;;;22.87;17.80;;;11.20;38.90;;;;;;5001082;28;20198;-65
2023/03/01 08:40:20;;;;;;;19.27;16.30;;;11.30;39.00;;;;;;4984534;28;20186;-64
2023/03/01 08:42:46;;;;;;;21.23;16.13;;;11.30;38.80;;;;;;5004300;28;20285;-64
2023/03/01 08:45:14;;;;;;;22.13;17.70;;;11.20;38.70;;;;;;4997471;28;20194;-64
2023/03/01 08:47:39;;;;;;;21.40;16.53;;;11.20;39.00;;;;;;5001506;28;20248;-64
2023/03/01 08:50:05;;;;;;;18.03;15.53;;;11.20;38.70;;;;;;5008938;28;20441;-64
2023/03/01 08:52:32;;;;;;;18.77;15.07;;;11.20;38.10;;;;;;5007361;28;20791;-63
2023/03/01 08:54:58;;;;;;;19.33;15.77;;;11.10;38.30;;;;;;4997574;28;20494;-64
2023/03/01 08:57:24;;;;;;;18.43;15.40;;;11.00;38.40;;;;;;5005559;28;21066;-64
2023/03/01 08:59:49;;;;;;;21.63;16.83;;;10.90;38.30;;;;;;5007198;28;20224;-63
2023/03/01 09:02:16;;;;;;;18.83;14.60;;;11.00;38.10;;;;;;5007251;28;20230;-64
2023/03/01 09:04:42;;;;;;;24.13;17.30;;;10.80;38.10;;;;;;5005807;28;20202;-63
2023/03/01 09:07:09;;;;;;;20.03;15.23;;;10.50;38.90;;;;;;5007961;28;20455;-64
2023/03/01 09:09:35;;;;;;;18.50;14.50;;;10.30;39.00;;;;;;4990339;28;20808;-64
2023/03/01 09:12:01;;;;;;;21.70;14.70;;;10.40;39.20;;;;;;5000536;28;20441;-64
2023/03/01 09:14:27;;;;;;;20.67;15.30;;;10.40;38.80;;;;;;5007037;28;20849;-64
2023/03/01 09:16:53;;;;;;;19.03;14.97;;;10.50;39.40;;;;;;5005127;28;20537;-64
2023/03/01 09:19:20;;;;;;;20.13;14.70;;;10.70;39.10;;;;;;4992062;28;20244;-64
2023/03/01 09:21:51;;;;;;;19.03;15.20;;;10.70;38.20;;;;;;4997259;28;20221;-63
2023/03/01 09:24:19;;;;;;;21.60;15.70;;;11.00;38.10;;;;;;4998695;28;20531;-64
2023/03/01 09:26:48;;;;;;;18.83;14.77;;;11.30;37.70;;;;;;5002651;28;20498;-64
2023/03/01 09:29:14;;;;;;;16.43;13.93;;;11.30;37.80;;;;;;5003365;28;20902;-63
2023/03/01 09:31:41;;;;;;;18.93;14.83;;;11.10;37.30;;;;;;5007839;28;20927;-63
2023/03/01 09:34:07;;;;;;;18.30;14.30;;;10.90;37.30;;;;;;5002336;28;20445;-64
2023/03/01 09:36:33;;;;;;;21.90;16.50;;;10.80;37.50;;;;;;5001092;28;20485;-64
2023/03/01 09:39:00;;;;;;;17.43;14.37;;;10.90;37.80;;;;;;5003592;28;20441;-64
2023/03/01 09:41:47;;;;;;;19.83;14.77;;;10.80;37.40;;;;;;5007859;28;21185;-64
2023/03/01 09:44:22;;;;;;;23.00;15.43;;;10.80;37.80;;;;;;5009850;28;20479;-63
2023/03/01 09:46:48;;;;;;;18.70;14.90;;;10.70;37.40;;;;;;5004545;28;20425;-63
2023/03/01 09:49:25;;;;;;;18.43;15.00;;;10.70;37.70;;;;;;4996487;28;20476;-64
2023/03/01 09:52:09;;;;;;;20.77;15.80;;;11.00;38.20;;;;;;5001702;28;20445;-63
2023/03/01 09:54:34;;;;;;;18.37;16.10;;;11.00;38.00;;;;;;4993433;28;21121;-63
2023/03/01 09:57:12;;;;;;;19.63;14.70;;;10.90;38.30;;;;;;4993498;28;20437;-64
2023/03/01 10:00:04;;;;;;;19.77;16.13;;;11.30;37.80;;;;;;5004933;28;20213;-64
2023/03/01 10:02:55;;;;;;;19.03;16.13;;;11.50;37.00;;;;;;4992570;28;20496;-64
2023/03/01 10:05:39;;;;;;;20.03;15.07;;;11.60;36.60;;;;;;4992327;28;20488;-63
2023/03/01 10:08:08;;;;;;;16.80;13.80;;;11.80;36.50;;;;;;5001580;28;20448;-63
2023/03/01 10:10:37;;;;;;;17.00;15.20;;;11.90;36.60;;;;;;5003360;28;20456;-63
2023/03/01 10:13:21;;;;;;;21.20;14.00;;;11.60;36.10;;;;;;5008962;28;20872;-64
2023/03/01 10:16:11;;;;;;;17.80;14.40;;;11.60;36.90;;;;;;5005652;28;20552;-63
2023/03/01 10:18:39;;;;;;;17.63;14.57;;;11.70;36.50;;;;;;4990960;28;20557;-63
2023/03/01 10:21:23;;;;;;;16.60;14.53;;;12.10;36.40;;;;;;5005304;28;20484;-63
2023/03/01 10:23:53;;;;;;;17.83;15.80;;;12.10;35.60;;;;;;4991541;28;20592;-63
2023/03/01 10:26:30;;;;;;;17.63;14.97;;;12.10;36.20;;;;;;5002660;28;20456;-63
2023/03/01 10:29:02;;;;;;;16.63;13.37;;;12.10;35.90;;;;;;5001603;28;20495;-63
2023/03/01 10:32:02;;;;;;;18.73;15.93;;;12.10;36.00;;;;;;5000215;28;20451;-63
2023/03/01 10:34:31;;;;;;;14.40;12.90;;;12.50;36.80;;;;;;4995213;28;20516;-63
2023/03/01 10:37:08;;;;;;;20.13;15.90;;;13.00;35.60;;;;;;5012486;28;20499;-63
2023/03/01 10:39:34;;;;;;;17.40;14.47;;;13.20;34.60;;;;;;4994443;28;20453;-64
2023/03/01 10:42:05;;;;;;;20.87;16.03;;;13.30;34.60;;;;;;4995757;28;20547;-64
2023/03/01 10:44:44;;;;;;;18.43;15.20;;;13.10;34.60;;;;;;5013807;28;20198;-63
2023/03/01 10:47:25;;;;;;;18.37;15.20;;;13.40;34.80;;;;;;5002238;28;20449;-64
2023/03/01 10:49:59;;;;;;;19.80;16.00;;;13.50;34.20;;;;;;5013232;28;20444;-64
2023/03/01 10:52:31;;;;;;;18.60;14.60;;;13.90;34.00;;;;;;4995700;28;20463;-64
2023/03/01 10:55:30;;;;;;;18.67;14.67;;;13.60;33.00;;;;;;5014064;28;20444;-63
2023/03/01 10:58:15;;;;;;;18.60;15.13;;;13.70;33.80;;;;;;5008131;28;20947;-63
2023/03/01 11:00:54;;;;;;;21.80;17.63;;;14.10;33.80;;;;;;5013006;28;20550;-63
2023/03/01 11:03:35;;;;;;;18.27;15.03;;;14.30;33.00;;;;;;5012083;28;20433;-64
2023/03/01 11:06:04;;;;;;;18.50;15.33;;;14.50;32.50;;;;;;5006171;28;20851;-63
2023/03/01 11:08:56;;;;;;;16.23;12.90;;;14.70;32.50;;;;;;5002787;28;20456;-64
2023/03/01 11:11:34;;;;;;;18.20;14.87;;;14.80;32.30;;;;;;5003358;28;20457;-64
2023/03/01 11:14:15;;;;;;;16.40;14.57;;;14.90;32.20;;;;;;4994363;28;20491;-63
2023/03/01 11:16:44;;;;;;;18.13;15.40;;;14.60;32.30;;;;;;5013186;28;20451;-64
2023/03/01 11:19:09;;;;;;;17.57;15.03;;;14.60;32.30;;;;;;5006441;28;20444;-63
2023/03/01 11:21:39;;;;;;;18.50;15.10;;;14.70;32.30;;;;;;5002077;28;20570;-64
2023/03/01 11:24:10;;;;;;;15.80;14.10;;;14.90;31.90;;;;;;4993825;28;20270;-64
2023/03/01 11:26:42;;;;;;;22.60;15.00;;;15.10;32.20;;;;;;5009400;28;20499;-64
2023/03/01 11:29:42;;;;;;;17.50;14.50;;;15.20;32.00;;;;;;5010371;28;20535;-63
2023/03/01 11:32:12;;;;;;;17.40;14.57;;;15.20;31.50;;;;;;4992994;28;20483;-64
2023/03/01 11:34:43;;;;;;;15.90;14.00;;;15.50;32.70;;;;;;4994874;28;20541;-64
2023/03/01 11:37:32;;;;;;;16.70;14.87;;;15.40;32.00;;;;;;5008303;28;20449;-63
2023/03/01 11:40:02;;;;;;;16.20;14.03;;;15.50;31.20;;;;;;5013187;28;20531;-64
2023/03/01 11:42:51;;;;;;;15.50;13.90;;;15.40;31.40;;;;;;5004465;28;20523;-64
2023/03/01 11:45:16;;;;;;;16.03;13.27;;;15.60;32.40;;;;;;5002216;28;20452;-64
2023/03/01 11:47:57;;;;;;;15.97;14.27;;;15.80;32.10;;;;;;5012287;28;20507;-63
2023/03/01 11:50:26;;;;;;;16.13;14.43;;;15.80;32.00;;;;;;5006524;28;20235;-65
2023/03/01 11:53:32;;;;;;;15.00;13.37;;;15.50;31.60;;;;;;5003495;28;20453;-64
2023/03/01 11:56:16;;;;;;;17.07;14.37;;;15.30;31.70;;;;;;5003420;28;20480;-65
2023/03/01 11:58:56;;;;;;;16.93;13.30;;;15.10;32.60;;;;;;5000796;28;20936;-66
2023/03/01 12:01:52;;;;;;;15.30;13.70;;;15.20;31.70;;;;;;5000695;28;20496;-65
2023/03/01 12:04:29;;;;;;;17.90;13.07;;;14.80;32.00;;;;;;4998244;28;20465;-65
2023/03/01 12:07:13;;;;;;;15.43;13.40;;;14.90;32.50;;;;;;5001371;28;20444;-65
2023/03/01 12:10:04;;;;;;;19.73;13.90;;;14.70;31.90;;;;;;4995162;28;20460;-65
2023/03/01 12:12:38;;;;;;;19.80;13.53;;;14.70;32.40;;;;;;5008712;28;20922;-65
2023/03/01 12:15:09;;;;;;;16.13;14.30;;;14.70;33.10;;;;;;4998450;28;20436;-65
2023/03/01 12:18:01;;;;;;;18.13;14.13;;;14.90;33.50;;;;;;5001155;28;20483;-65
2023/03/01 12:20:35;;;;;;;15.23;13.23;;;15.30;32.70;;;;;;5002124;28;20536;-65
2023/03/01 12:23:01;;;;;;;16.47;13.83;;;15.30;32.30;;;;;;5004917;28;20452;-65
2023/03/01 12:25:41;;;;;;;13.93;12.63;;;15.70;31.60;;;;;;5006276;28;20538;-65
2023/03/01 12:28:28;;;;;;;15.20;13.03;;;16.00;31.10;;;;;;4993519;28;20213;-65
2023/03/01 12:31:39;;;;;;;13.87;12.47;;;15.90;30.40;;;;;;4999373;28;20449;-65
2023/03/01 12:34:26;;;;;;;17.00;14.63;;;15.60;31.00;;;;;;4989716;28;20877;-65
2023/03/01 12:37:10;;;;;;;16.20;14.20;;;15.70;31.40;;;;;;5003949;28;20501;-65
2023/03/01 12:40:11;;;;;;;16.60;13.00;;;15.60;31.40;;;;;;4987181;28;20467;-65
2023/03/01 12:43:07;;;;;;;15.03;13.20;;;15.80;31.40;;;;;;4996876;28;20550;-65
2023/03/01 12:45:48;;;;;;;15.57;12.97;;;15.90;31.30;;;;;;5006534;28;20523;-65
2023/03/01 12:48:50;;;;;;;15.13;13.63;;;16.00;30.90;;;;;;4995153;28;20506;-65
2023/03/01 12:51:23;;;;;;;16.07;12.63;;;16.20;30.40;;;;;;5005329;28;20460;-65
2023/03/01 12:53:51;;;;;;;15.17;13.27;;;16.10;30.30;;;;;;5010435;28;21004;-64